createdAt,value
2023-02-26T00:01:38.706Z,82.20
2023-02-26T00:04:07.444Z,82.40
2023-02-26T00:06:37.829Z,82.40
2023-02-26T00:09:06.233Z,82.30
2023-02-26T00:11:34.043Z,82.20
2023-02-26T00:14:01.274Z,82.30
2023-02-26T00:16:35.821Z,82.50
2023-02-26T00:19:07.116Z,81.90
2023-02-26T00:21:36.336Z,82.40
2023-02-26T00:24:06.589Z,82.50
2023-02-26T00:26:35.562Z,82.60
2023-02-26T00:29:04.237Z,82.10
2023-02-26T00:31:32.004Z,82.30
2023-02-26T00:33:59.686Z,82.40
2023-02-26T00:36:45.132Z,82.20
2023-02-26T00:40:22.694Z,81.80
2023-02-26T00:42:50.532Z,78.60
2023-02-26T00:45:17.892Z,82.00
2023-02-26T00:48:16.607Z,82.10
2023-02-26T00:51:01.857Z,80.50
2023-02-26T00:54:19.244Z,82.00
2023-02-26T00:56:46.111Z,79.20
2023-02-26T00:59:12.982Z,82.00
2023-02-26T01:01:39.908Z,82.20
2023-02-26T01:04:08.270Z,82.20
2023-02-26T01:06:48.095Z,82.60
2023-02-26T01:09:34.257Z,82.10
2023-02-26T01:12:07.267Z,80.10
2023-02-26T01:14:36.053Z,82.00
2023-02-26T01:17:21.697Z,82.20
2023-02-26T01:20:01.135Z,80.60
2023-02-26T01:22:36.201Z,81.50
2023-02-26T01:25:09.070Z,82.10
2023-02-26T01:27:36.700Z,82.30
2023-02-26T01:30:06.565Z,82.50
2023-02-26T01:33:15.701Z,82.20
2023-02-26T01:35:47.065Z,79.70
2023-02-26T01:38:35.514Z,81.70
2023-02-26T01:41:30.031Z,81.60
2023-02-26T01:44:15.664Z,80.40
2023-02-26T01:47:02.321Z,80.20
2023-02-26T01:49:31.446Z,80.30
2023-02-26T01:52:05.667Z,81.80
2023-02-26T01:54:38.624Z,82.00
2023-02-26T01:57:12.482Z,81.50
2023-02-26T01:59:47.270Z,81.80
2023-02-26T02:02:21.735Z,81.80
2023-02-26T02:04:50.588Z,81.90
2023-02-26T02:07:18.718Z,82.10
2023-02-26T02:09:47.542Z,82.20
2023-02-26T02:12:48.968Z,82.30
2023-02-26T02:15:37.418Z,82.40
2023-02-26T02:18:38.170Z,82.30
2023-02-26T02:21:48.099Z,79.80
2023-02-26T02:24:47.958Z,81.00
2023-02-26T02:27:38.953Z,81.60
2023-02-26T02:31:11.577Z,81.90
2023-02-26T02:34:10.927Z,78.70
2023-02-26T02:36:51.354Z,80.60
2023-02-26T02:39:34.537Z,81.90
2023-02-26T02:42:11.774Z,80.20
2023-02-26T02:44:45.260Z,81.20
2023-02-26T02:47:15.611Z,81.40
2023-02-26T02:50:08.742Z,81.40
2023-02-26T02:53:06.171Z,79.00
2023-02-26T02:55:42.909Z,80.60
2023-02-26T02:58:20.703Z,81.60
2023-02-26T03:00:54.981Z,81.70
2023-02-26T03:03:56.676Z,81.70
2023-02-26T03:06:24.670Z,80.00
2023-02-26T03:08:53.188Z,82.00
2023-02-26T03:11:21.219Z,81.90
2023-02-26T03:13:50.515Z,81.80
2023-02-26T03:17:00.446Z,81.50
2023-02-26T03:19:44.541Z,78.40
2023-02-26T03:22:32.393Z,80.80
2023-02-26T03:25:21.515Z,80.80
2023-02-26T03:28:03.627Z,79.50
2023-02-26T03:30:43.972Z,80.90
2023-02-26T03:33:58.285Z,80.70
2023-02-26T03:36:40.676Z,78.70
2023-02-26T03:39:20.306Z,81.30
2023-02-26T03:41:59.302Z,81.60
2023-02-26T03:44:35.075Z,81.30
2023-02-26T03:47:08.736Z,81.10
2023-02-26T03:49:45.329Z,80.90
2023-02-26T03:52:14.520Z,80.70
2023-02-26T03:55:13.188Z,81.00
2023-02-26T03:57:40.185Z,79.50
2023-02-26T04:00:10.379Z,81.10
2023-02-26T04:02:58.134Z,81.00
2023-02-26T04:05:37.544Z,80.50
2023-02-26T04:08:04.769Z,80.30
2023-02-26T04:10:58.021Z,81.20
2023-02-26T04:13:25.182Z,80.20
2023-02-26T04:15:52.480Z,80.80
2023-02-26T04:18:19.319Z,80.90
2023-02-26T04:20:46.107Z,80.70
2023-02-26T04:23:12.973Z,80.60
2023-02-26T04:25:40.253Z,80.70
2023-02-26T04:28:07.190Z,80.70
2023-02-26T04:30:34.224Z,81.00
2023-02-26T04:33:01.075Z,80.50
2023-02-26T04:35:28.011Z,80.10
2023-02-26T04:37:54.806Z,79.80
2023-02-26T04:40:23.886Z,80.00
2023-02-26T04:42:51.239Z,80.30
2023-02-26T04:45:18.234Z,80.40
2023-02-26T04:47:45.052Z,80.40
2023-02-26T04:50:12.177Z,80.10
2023-02-26T04:52:39.025Z,79.90
2023-02-26T04:55:07.590Z,79.70
2023-02-26T04:57:34.595Z,79.50
2023-02-26T05:00:01.557Z,79.30
2023-02-26T05:02:28.429Z,79.40
2023-02-26T05:04:55.246Z,79.30
2023-02-26T05:07:22.065Z,79.20
2023-02-26T05:09:48.944Z,79.10
2023-02-26T05:12:16.123Z,79.30
2023-02-26T05:14:43.021Z,79.30
2023-02-26T05:17:09.899Z,79.60
2023-02-26T05:19:36.844Z,79.50
2023-02-26T05:22:03.677Z,79.30
2023-02-26T05:24:30.936Z,79.30
2023-02-26T05:26:57.845Z,79.30
2023-02-26T05:29:24.724Z,79.50
2023-02-26T05:31:51.739Z,79.30
2023-02-26T05:34:18.672Z,79.30
2023-02-26T05:36:45.483Z,79.10
2023-02-26T05:39:12.447Z,79.10
2023-02-26T05:41:39.279Z,78.90
2023-02-26T05:44:08.174Z,78.80
2023-02-26T05:46:35.196Z,78.60
2023-02-26T05:49:02.028Z,78.40
2023-02-26T05:51:29.321Z,78.30
2023-02-26T05:53:56.232Z,78.20
2023-02-26T05:56:23.466Z,78.30
2023-02-26T05:58:50.397Z,78.30
2023-02-26T06:01:17.381Z,78.20
2023-02-26T06:03:44.528Z,78.30
2023-02-26T06:06:18.035Z,78.40
2023-02-26T06:08:46.109Z,78.40
2023-02-26T06:11:13.416Z,78.50
2023-02-26T06:13:40.764Z,78.60
2023-02-26T06:16:07.844Z,78.80
2023-02-26T06:18:34.735Z,79.00
2023-02-26T06:21:02.338Z,79.10
2023-02-26T06:23:29.308Z,78.90
2023-02-26T06:25:56.122Z,79.50
2023-02-26T06:28:24.553Z,79.80
2023-02-26T06:30:53.484Z,80.00
2023-02-26T06:33:21.052Z,79.90
2023-02-26T06:35:48.110Z,79.80
2023-02-26T06:38:15.570Z,79.50
2023-02-26T06:40:42.810Z,79.30
2023-02-26T06:43:09.639Z,79.00
2023-02-26T06:45:36.580Z,79.30
2023-02-26T06:48:03.762Z,79.40
2023-02-26T06:50:31.525Z,79.30
2023-02-26T06:52:58.420Z,79.40
2023-02-26T06:55:27.930Z,79.40
2023-02-26T06:57:55.698Z,79.30
2023-02-26T07:00:24.281Z,79.20
2023-02-26T07:02:52.262Z,79.30
2023-02-26T07:05:19.482Z,79.50
2023-02-26T07:07:46.303Z,79.70
2023-02-26T07:10:13.436Z,80.00
2023-02-26T07:12:40.355Z,80.40
2023-02-26T07:15:08.671Z,80.50
2023-02-26T07:17:35.630Z,80.70
2023-02-26T07:20:06.597Z,80.90
2023-02-26T07:22:33.948Z,80.70
2023-02-26T07:25:00.812Z,80.30
2023-02-26T07:27:29.918Z,80.30
2023-02-26T07:29:57.250Z,80.30
2023-02-26T07:32:24.163Z,80.40
2023-02-26T07:34:51.256Z,80.60
2023-02-26T07:37:18.991Z,80.80
2023-02-26T07:39:46.028Z,80.70
2023-02-26T07:42:13.119Z,80.50
2023-02-26T07:44:39.979Z,80.00
2023-02-26T07:47:06.962Z,79.70
2023-02-26T07:49:34.078Z,79.00
2023-02-26T07:52:02.084Z,78.50
2023-02-26T07:54:29.017Z,78.40
2023-02-26T07:56:56.000Z,78.70
2023-02-26T07:59:23.045Z,79.10
2023-02-26T08:01:49.976Z,79.40
2023-02-26T08:04:16.903Z,79.80
2023-02-26T08:06:43.837Z,80.10
2023-02-26T08:09:10.642Z,80.10
2023-02-26T08:11:40.366Z,80.10
2023-02-26T08:14:07.794Z,80.10
2023-02-26T08:16:34.670Z,80.00
2023-02-26T08:19:01.554Z,79.90
2023-02-26T08:21:28.628Z,80.00
2023-02-26T08:23:55.516Z,80.00
2023-02-26T08:26:22.633Z,79.80
2023-02-26T08:28:49.755Z,79.70
2023-02-26T08:31:16.811Z,79.80
2023-02-26T08:33:44.518Z,80.20
2023-02-26T08:36:12.206Z,80.50
2023-02-26T08:38:39.499Z,80.70
2023-02-26T08:41:06.646Z,80.90
2023-02-26T08:43:33.492Z,80.50
2023-02-26T08:46:00.599Z,80.40
2023-02-26T08:48:27.522Z,80.20
2023-02-26T08:50:54.426Z,80.00
2023-02-26T08:53:21.485Z,79.90
2023-02-26T08:55:51.633Z,79.60
2023-02-26T08:58:19.561Z,79.20
2023-02-26T09:00:47.550Z,79.10
2023-02-26T09:03:14.897Z,79.30
2023-02-26T09:05:41.888Z,79.40
2023-02-26T09:08:11.413Z,79.50
2023-02-26T09:10:40.692Z,79.50
2023-02-26T09:13:08.934Z,79.40
2023-02-26T09:15:35.838Z,79.40
2023-02-26T09:18:02.733Z,79.60
2023-02-26T09:20:29.645Z,79.80
2023-02-26T09:22:56.469Z,80.00
2023-02-26T09:25:23.957Z,79.40
2023-02-26T09:27:51.108Z,79.40
2023-02-26T09:30:18.285Z,79.40
2023-02-26T09:32:45.210Z,79.80
2023-02-26T09:35:12.176Z,80.50
2023-02-26T09:37:40.107Z,80.80
2023-02-26T09:40:08.628Z,80.90
2023-02-26T09:43:00.746Z,81.20
2023-02-26T09:45:35.859Z,79.70
2023-02-26T09:48:06.830Z,81.20
2023-02-26T09:50:52.242Z,80.90
2023-02-26T09:53:31.366Z,79.30
2023-02-26T09:56:19.710Z,79.40
2023-02-26T09:58:47.000Z,76.60
2023-02-26T10:01:32.049Z,78.80
2023-02-26T10:05:00.400Z,78.00
2023-02-26T10:08:02.006Z,75.00
2023-02-26T10:10:45.304Z,76.30
2023-02-26T10:13:56.578Z,77.40
2023-02-26T10:16:46.307Z,75.10
2023-02-26T10:19:27.447Z,78.40
2023-02-26T10:22:26.039Z,77.80
2023-02-26T10:25:03.339Z,76.50
2023-02-26T10:27:49.062Z,80.00
2023-02-26T10:30:25.163Z,78.10
2023-02-26T10:33:15.528Z,79.50
2023-02-26T10:35:54.185Z,80.60
2023-02-26T10:38:31.949Z,78.30
2023-02-26T10:41:05.452Z,78.10
2023-02-26T10:43:56.689Z,79.50
2023-02-26T10:46:56.912Z,78.10
2023-02-26T10:49:52.379Z,78.40
2023-02-26T10:52:28.516Z,75.40
2023-02-26T10:55:07.142Z,77.90
2023-02-26T10:57:48.212Z,78.50
2023-02-26T11:00:21.190Z,77.00
2023-02-26T11:02:53.448Z,77.90
2023-02-26T11:05:28.109Z,79.10
2023-02-26T11:08:16.508Z,79.70
2023-02-26T11:10:57.215Z,80.20
2023-02-26T11:13:27.629Z,79.50
2023-02-26T11:16:02.130Z,79.90
2023-02-26T11:18:54.465Z,79.30
2023-02-26T11:21:36.481Z,78.60
2023-02-26T11:24:14.990Z,78.20
2023-02-26T11:26:47.668Z,79.50
2023-02-26T11:29:20.541Z,79.90
2023-02-26T11:32:07.407Z,80.70
2023-02-26T11:34:36.471Z,76.60
2023-02-26T11:37:05.405Z,80.60
2023-02-26T11:39:38.508Z,80.10
2023-02-26T11:42:05.736Z,79.50
2023-02-26T11:44:45.509Z,80.00
2023-02-26T11:47:20.977Z,79.80
2023-02-26T11:50:13.945Z,80.50
2023-02-26T11:52:45.239Z,80.60
2023-02-26T11:55:32.909Z,81.10
2023-02-26T11:57:59.745Z,79.50
2023-02-26T12:00:40.163Z,82.10
2023-02-26T12:03:16.716Z,80.20
2023-02-26T12:05:43.822Z,83.60
2023-02-26T12:08:38.307Z,83.70
2023-02-26T12:11:51.525Z,79.50
2023-02-26T12:14:57.608Z,81.80
2023-02-26T12:18:11.254Z,77.60
2023-02-26T12:21:05.522Z,77.80
2023-02-26T12:23:42.576Z,80.90
2023-02-26T12:26:37.168Z,81.90
2023-02-26T12:29:25.334Z,76.80
2023-02-26T12:32:04.160Z,79.80
2023-02-26T12:35:08.424Z,78.20
2023-02-26T12:38:00.164Z,78.00
2023-02-26T12:41:03.232Z,78.30
2023-02-26T12:43:50.563Z,77.70
2023-02-26T12:46:31.885Z,81.10
2023-02-26T12:49:47.455Z,82.00
2023-02-26T12:53:02.177Z,77.30
2023-02-26T12:55:37.896Z,78.00
2023-02-26T12:58:46.605Z,80.50
2023-02-26T13:01:33.693Z,76.90
2023-02-26T13:04:56.375Z,82.40
2023-02-26T13:07:56.633Z,76.80
2023-02-26T13:10:48.117Z,79.80
2023-02-26T13:13:48.781Z,81.90
2023-02-26T13:16:36.526Z,77.40
2023-02-26T13:19:18.286Z,80.90
2023-02-26T13:21:59.727Z,83.00
2023-02-26T13:24:38.263Z,81.30
2023-02-26T13:27:07.712Z,82.60
2023-02-26T13:30:06.192Z,83.00
2023-02-26T13:32:35.710Z,81.60
2023-02-26T13:35:29.626Z,83.20
2023-02-26T13:38:01.597Z,78.10
2023-02-26T13:41:19.620Z,81.40
2023-02-26T13:44:33.043Z,74.80
2023-02-26T13:47:23.649Z,73.80
2023-02-26T13:50:37.816Z,76.30
2023-02-26T13:53:34.853Z,75.80
2023-02-26T13:56:22.094Z,76.80
2023-02-26T13:59:14.599Z,74.90
2023-02-26T14:02:22.956Z,76.70
2023-02-26T14:04:58.956Z,78.40
2023-02-26T14:07:49.376Z,81.00
2023-02-26T14:10:33.012Z,77.00
2023-02-26T14:13:21.728Z,79.30
2023-02-26T14:16:21.732Z,76.90
2023-02-26T14:18:48.696Z,78.40
2023-02-26T14:22:14.186Z,81.50
2023-02-26T14:25:12.059Z,76.40
2023-02-26T14:27:42.668Z,79.90
2023-02-26T14:30:09.486Z,80.90
2023-02-26T14:32:58.633Z,81.70
2023-02-26T14:35:33.760Z,78.00
2023-02-26T14:38:18.562Z,83.70
2023-02-26T14:40:59.157Z,86.20
2023-02-26T14:43:37.171Z,85.90
2023-02-26T14:46:06.925Z,83.50
2023-02-26T14:48:35.076Z,81.40
2023-02-26T14:51:35.939Z,79.50
2023-02-26T14:54:19.180Z,76.60
2023-02-26T14:57:27.199Z,75.40
2023-02-26T15:00:13.671Z,74.30
2023-02-26T15:03:00.557Z,77.10
2023-02-26T15:06:01.136Z,75.90
2023-02-26T15:09:11.864Z,76.50
2023-02-26T15:12:07.003Z,76.00
2023-02-26T15:15:26.657Z,75.90
2023-02-26T15:18:21.202Z,76.90
2023-02-26T15:21:06.406Z,80.30
2023-02-26T15:23:42.282Z,81.30
2023-02-26T15:26:20.655Z,82.10
2023-02-26T15:28:49.119Z,84.40
2023-02-26T15:31:20.571Z,87.60
2023-02-26T15:33:50.852Z,90.00
2023-02-26T15:36:21.998Z,90.00
2023-02-26T15:39:01.759Z,88.70
2023-02-26T15:41:31.953Z,87.00
2023-02-26T15:44:13.888Z,84.40
2023-02-26T15:46:47.337Z,80.20
2023-02-26T15:49:38.605Z,81.20
2023-02-26T15:52:08.820Z,76.40
2023-02-26T15:54:50.838Z,80.90
2023-02-26T15:57:19.995Z,78.40
2023-02-26T15:59:52.338Z,80.70
2023-02-26T16:02:26.755Z,80.40
2023-02-26T16:04:53.670Z,80.00
2023-02-26T16:07:20.981Z,80.30
2023-02-26T16:09:51.961Z,80.30
2023-02-26T16:12:38.654Z,78.90
2023-02-26T16:15:13.988Z,76.90
2023-02-26T16:17:45.893Z,78.10
2023-02-26T16:20:19.366Z,77.90
2023-02-26T16:23:30.931Z,78.30
2023-02-26T16:26:06.573Z,78.40
2023-02-26T16:28:43.821Z,79.10
2023-02-26T16:31:21.144Z,79.70
2023-02-26T16:33:58.675Z,79.40
2023-02-26T16:36:38.166Z,78.50
2023-02-26T16:39:07.630Z,79.40
2023-02-26T16:41:40.315Z,79.00
2023-02-26T16:44:32.160Z,79.10
2023-02-26T16:47:02.162Z,75.50
2023-02-26T16:49:36.052Z,79.20
2023-02-26T16:52:04.952Z,78.50
2023-02-26T16:54:40.952Z,79.50
2023-02-26T16:57:17.207Z,78.80
2023-02-26T16:59:53.477Z,79.90
2023-02-26T17:02:29.417Z,79.20
2023-02-26T17:05:02.618Z,79.10
2023-02-26T17:07:37.852Z,79.50
2023-02-26T17:10:32.490Z,79.30
2023-02-26T17:13:16.559Z,76.30
2023-02-26T17:15:47.045Z,79.30
2023-02-26T17:18:14.748Z,80.70
2023-02-26T17:20:42.120Z,80.30
2023-02-26T17:23:09.775Z,80.50
2023-02-26T17:25:43.290Z,80.50
2023-02-26T17:28:25.942Z,80.30
2023-02-26T17:30:55.076Z,79.30
2023-02-26T17:33:22.480Z,80.60
2023-02-26T17:35:50.227Z,80.50
2023-02-26T17:38:17.269Z,80.40
2023-02-26T17:40:47.613Z,80.30
2023-02-26T17:43:14.664Z,80.10
2023-02-26T17:45:41.727Z,79.90
2023-02-26T17:48:11.190Z,79.80
2023-02-26T17:50:57.911Z,79.70
2023-02-26T17:53:33.344Z,77.00
2023-02-26T17:56:00.498Z,79.50
2023-02-26T17:58:34.117Z,79.70
2023-02-26T18:01:03.991Z,79.00
2023-02-26T18:03:31.299Z,79.60
2023-02-26T18:05:59.067Z,79.60
2023-02-26T18:08:31.127Z,79.60
2023-02-26T18:10:59.984Z,79.40
2023-02-26T18:13:28.151Z,79.50
2023-02-26T18:15:58.063Z,79.60
2023-02-26T18:18:26.547Z,79.80
2023-02-26T18:20:54.497Z,79.70
2023-02-26T18:23:21.560Z,79.80
2023-02-26T18:25:51.192Z,80.10
2023-02-26T18:28:28.705Z,80.40
2023-02-26T18:30:57.976Z,79.00
2023-02-26T18:33:25.736Z,80.50
2023-02-26T18:35:56.833Z,80.70
2023-02-26T18:38:28.374Z,81.10
2023-02-26T18:40:56.668Z,80.80
2023-02-26T18:43:23.794Z,81.00
2023-02-26T18:45:52.563Z,81.10
2023-02-26T18:48:21.436Z,81.10
2023-02-26T18:50:49.904Z,81.00
2023-02-26T18:53:17.663Z,81.20
2023-02-26T18:55:45.311Z,81.20
2023-02-26T18:58:13.256Z,81.20
2023-02-26T19:00:40.430Z,81.30
2023-02-26T19:03:09.190Z,81.30
2023-02-26T19:05:37.352Z,81.20
2023-02-26T19:08:04.696Z,81.20
2023-02-26T19:10:31.798Z,81.20
2023-02-26T19:12:58.846Z,81.10
2023-02-26T19:15:26.196Z,81.10
2023-02-26T19:17:53.239Z,81.10
2023-02-26T19:20:20.287Z,80.90
2023-02-26T19:22:47.176Z,80.70
2023-02-26T19:25:14.360Z,80.60
2023-02-26T19:27:41.520Z,80.70
2023-02-26T19:30:09.638Z,80.80
2023-02-26T19:32:36.718Z,80.60
2023-02-26T19:35:03.999Z,80.40
2023-02-26T19:37:31.256Z,80.50
2023-02-26T19:39:58.108Z,80.50
2023-02-26T19:42:28.212Z,80.50
2023-02-26T19:44:55.142Z,80.40
2023-02-26T19:47:22.044Z,80.40
2023-02-26T19:49:49.066Z,80.40
2023-02-26T19:52:16.029Z,80.20
2023-02-26T19:54:42.972Z,80.00
2023-02-26T19:57:09.976Z,80.10
2023-02-26T19:59:37.050Z,80.10
2023-02-26T20:02:05.618Z,80.10
2023-02-26T20:04:33.374Z,80.30
2023-02-26T20:07:00.243Z,80.50
2023-02-26T20:09:27.933Z,80.60
2023-02-26T20:11:54.991Z,80.60
2023-02-26T20:14:21.836Z,80.60
2023-02-26T20:16:48.709Z,80.60
2023-02-26T20:19:15.636Z,80.50
2023-02-26T20:21:43.206Z,80.40
2023-02-26T20:24:10.539Z,80.30
2023-02-26T20:26:37.820Z,80.30
2023-02-26T20:29:04.833Z,80.30
2023-02-26T20:31:31.914Z,80.20
2023-02-26T20:33:58.931Z,80.60
2023-02-26T20:36:26.232Z,80.10
2023-02-26T20:38:53.227Z,80.20
2023-02-26T20:41:20.323Z,80.30
2023-02-26T20:43:47.730Z,80.50
2023-02-26T20:46:14.816Z,80.40
2023-02-26T20:48:46.240Z,80.30
2023-02-26T20:51:13.395Z,80.10
2023-02-26T20:53:40.480Z,80.20
2023-02-26T20:56:08.086Z,80.10
2023-02-26T20:58:35.005Z,80.00
2023-02-26T21:01:01.897Z,80.20
2023-02-26T21:03:28.811Z,79.90
2023-02-26T21:05:56.600Z,79.80
2023-02-26T21:08:23.646Z,79.80
2023-02-26T21:10:53.736Z,79.80
2023-02-26T21:13:21.028Z,79.60
2023-02-26T21:15:50.231Z,79.80
2023-02-26T21:18:17.128Z,80.20
2023-02-26T21:20:44.022Z,80.00
2023-02-26T21:23:10.981Z,80.00
2023-02-26T21:25:39.584Z,79.90
2023-02-26T21:28:06.433Z,80.00
2023-02-26T21:30:33.299Z,80.10
2023-02-26T21:33:00.193Z,80.20
2023-02-26T21:35:27.260Z,80.10
2023-02-26T21:37:54.618Z,80.10
2023-02-26T21:40:22.665Z,80.20
2023-02-26T21:42:49.515Z,80.40
2023-02-26T21:45:16.485Z,80.50
2023-02-26T21:47:43.375Z,80.40
2023-02-26T21:50:11.094Z,80.20
2023-02-26T21:52:37.980Z,80.10
2023-02-26T21:55:06.104Z,80.10
2023-02-26T21:57:33.064Z,80.00
2023-02-26T22:00:00.099Z,80.10
2023-02-26T22:02:26.979Z,80.00
2023-02-26T22:04:53.873Z,79.90
2023-02-26T22:07:20.760Z,80.00
2023-02-26T22:09:49.012Z,80.00
2023-02-26T22:12:18.361Z,80.20
2023-02-26T22:14:49.247Z,80.00
2023-02-26T22:17:16.320Z,80.40
2023-02-26T22:19:43.158Z,80.50
2023-02-26T22:22:10.094Z,80.60
2023-02-26T22:24:36.981Z,80.70
2023-02-26T22:27:04.096Z,80.80
2023-02-26T22:29:30.971Z,80.90
2023-02-26T22:31:57.913Z,81.10
2023-02-26T22:34:25.140Z,81.20
2023-02-26T22:36:52.666Z,81.20
2023-02-26T22:39:20.546Z,81.10
2023-02-26T22:41:47.827Z,81.00
2023-02-26T22:44:15.099Z,81.00
2023-02-26T22:46:42.813Z,80.90
2023-02-26T22:49:10.030Z,80.90
2023-02-26T22:51:36.983Z,81.00
2023-02-26T22:54:04.093Z,81.10
2023-02-26T22:56:31.544Z,80.90
2023-02-26T22:58:58.398Z,80.70
2023-02-26T23:01:25.848Z,80.70
2023-02-26T23:03:52.819Z,80.80
2023-02-26T23:06:19.682Z,80.70
2023-02-26T23:08:46.540Z,80.70
2023-02-26T23:11:13.630Z,80.50
2023-02-26T23:13:40.520Z,80.30
2023-02-26T23:16:10.858Z,80.30
2023-02-26T23:18:39.439Z,80.10
2023-02-26T23:21:08.134Z,80.10
2023-02-26T23:23:35.173Z,80.30
2023-02-26T23:26:02.374Z,80.50
2023-02-26T23:28:31.031Z,80.50
2023-02-26T23:30:58.008Z,80.20
2023-02-26T23:33:25.974Z,80.30
2023-02-26T23:35:52.827Z,80.10
2023-02-26T23:38:19.964Z,80.10
2023-02-26T23:40:46.952Z,79.90
2023-02-26T23:43:13.882Z,79.70
2023-02-26T23:45:40.824Z,79.70
2023-02-26T23:48:08.098Z,79.60
2023-02-26T23:50:34.975Z,79.40
2023-02-26T23:53:01.867Z,79.40
2023-02-26T23:55:28.754Z,79.40
2023-02-26T23:57:55.648Z,79.50
